createdAt,value
2023-02-11T00:04:01.113Z,7.56
2023-02-11T00:09:05.033Z,7.21
2023-02-11T00:14:08.433Z,7.67
2023-02-11T00:19:11.243Z,6.95
2023-02-11T00:24:14.047Z,8.14
2023-02-11T00:29:16.808Z,6.65
2023-02-11T00:34:19.538Z,7.51
2023-02-11T00:39:22.170Z,7.08
2023-02-11T00:44:25.214Z,7.40
2023-02-11T00:49:28.096Z,6.90
2023-02-11T00:54:30.824Z,7.69
2023-02-11T00:59:33.645Z,6.91
2023-02-11T01:04:36.358Z,7.58
2023-02-11T01:09:39.355Z,7.34
2023-02-11T01:14:42.351Z,6.95
2023-02-11T01:19:45.164Z,7.60
2023-02-11T01:24:47.872Z,6.35
2023-02-11T01:29:50.691Z,7.54
2023-02-11T01:34:53.429Z,6.68
2023-02-11T01:39:56.167Z,7.62
2023-02-11T01:45:02.127Z,7.42
2023-02-11T01:50:05.320Z,6.47
2023-02-11T01:55:31.613Z,7.26
2023-02-11T02:00:37.895Z,7.15
2023-02-11T02:06:06.140Z,6.87
2023-02-11T02:11:08.878Z,7.18
2023-02-11T02:16:17.964Z,7.63
2023-02-11T02:21:46.024Z,6.41
2023-02-11T02:27:10.645Z,7.24
2023-02-11T02:32:23.368Z,7.46
2023-02-11T02:37:51.746Z,6.56
2023-02-11T02:42:55.278Z,7.15
2023-02-11T02:47:58.145Z,7.17
2023-02-11T02:53:11.152Z,6.29
2023-02-11T02:58:43.120Z,7.44
2023-02-11T03:04:01.300Z,6.29
2023-02-11T03:09:19.349Z,7.23
2023-02-11T03:14:26.945Z,6.44
2023-02-11T03:19:34.983Z,6.86
2023-02-11T03:24:39.806Z,7.12
2023-02-11T03:29:49.502Z,7.29
2023-02-11T03:35:14.315Z,6.19
2023-02-11T03:40:26.743Z,7.23
2023-02-11T03:45:30.625Z,6.35
2023-02-11T03:50:36.378Z,6.99
2023-02-11T03:55:40.437Z,6.62
2023-02-11T04:00:44.542Z,6.69
2023-02-11T04:05:47.522Z,6.60
2023-02-11T04:10:50.367Z,6.54
2023-02-11T04:15:53.476Z,7.11
2023-02-11T04:20:56.618Z,6.11
2023-02-11T04:25:59.525Z,7.14
2023-02-11T04:31:02.496Z,5.99
2023-02-11T04:36:05.530Z,7.02
2023-02-11T04:41:08.342Z,6.11
2023-02-11T04:46:11.104Z,6.83
2023-02-11T04:51:14.121Z,6.92
2023-02-11T04:56:16.850Z,6.30
2023-02-11T05:01:19.768Z,7.11
2023-02-11T05:06:22.945Z,7.04
2023-02-11T05:11:26.454Z,7.18
2023-02-11T05:16:29.219Z,7.08
2023-02-11T05:21:32.077Z,7.20
2023-02-11T05:26:34.879Z,7.62
2023-02-11T05:31:37.716Z,6.52
2023-02-11T05:36:40.427Z,6.72
2023-02-11T05:41:43.182Z,6.90
2023-02-11T05:46:45.959Z,7.04
2023-02-11T05:51:48.790Z,6.72
2023-02-11T05:56:51.591Z,6.77
2023-02-11T06:01:54.332Z,7.30
2023-02-11T06:06:57.296Z,6.87
2023-02-11T06:12:00.321Z,6.81
2023-02-11T06:17:03.274Z,7.05
2023-02-11T06:22:05.984Z,7.02
2023-02-11T06:27:08.731Z,7.35
2023-02-11T06:32:28.144Z,7.82
2023-02-11T06:37:35.312Z,6.92
2023-02-11T06:42:39.397Z,7.04
2023-02-11T06:47:42.343Z,7.14
2023-02-11T06:52:45.051Z,7.46
2023-02-11T06:57:47.833Z,6.98
2023-02-11T07:02:50.516Z,6.47
2023-02-11T07:07:53.334Z,6.96
2023-02-11T07:12:58.696Z,6.79
2023-02-11T07:18:01.673Z,6.49
2023-02-11T07:23:05.117Z,6.86
2023-02-11T07:28:07.920Z,7.01
2023-02-11T07:33:11.129Z,6.98
2023-02-11T07:38:14.237Z,6.79
2023-02-11T07:43:16.929Z,6.62
2023-02-11T07:48:19.635Z,7.33
2023-02-11T07:53:22.326Z,7.25
2023-02-11T07:58:25.141Z,7.30
2023-02-11T08:03:28.099Z,7.03
2023-02-11T08:08:30.911Z,7.41
2023-02-11T08:13:34.152Z,7.58
2023-02-11T08:18:37.067Z,7.26
2023-02-11T08:23:41.441Z,7.22
2023-02-11T08:28:45.909Z,7.22
2023-02-11T08:33:49.043Z,7.34
2023-02-11T08:38:52.170Z,6.91
2023-02-11T08:43:55.087Z,6.90
2023-02-11T08:48:58.061Z,7.59
2023-02-11T08:54:01.092Z,7.03
2023-02-11T08:59:04.172Z,7.25
2023-02-11T09:04:07.406Z,7.20
2023-02-11T09:09:13.617Z,7.05
2023-02-11T09:14:20.088Z,7.19
2023-02-11T09:19:23.276Z,7.71
2023-02-11T09:24:26.002Z,7.99
2023-02-11T09:29:28.782Z,7.82
2023-02-11T09:34:31.563Z,7.24
2023-02-11T09:39:34.317Z,7.41
2023-02-11T09:44:38.930Z,7.19
2023-02-11T09:49:47.728Z,7.38
2023-02-11T09:54:59.610Z,7.46
2023-02-11T10:00:17.320Z,7.99
2023-02-11T10:05:25.685Z,7.85
2023-02-11T10:10:50.273Z,7.59
2023-02-11T10:16:27.127Z,7.66
2023-02-11T10:22:08.773Z,7.67
2023-02-11T10:27:21.991Z,8.26
2023-02-11T10:32:49.289Z,8.36
2023-02-11T10:37:51.992Z,8.49
2023-02-11T10:43:02.846Z,8.73
2023-02-11T10:48:26.364Z,8.85
2023-02-11T10:53:29.072Z,8.55
2023-02-11T10:58:41.971Z,8.56
2023-02-11T11:03:51.125Z,8.23
2023-02-11T11:08:53.812Z,8.55
2023-02-11T11:14:00.742Z,8.45
2023-02-11T11:19:06.218Z,8.27
2023-02-11T11:24:45.302Z,8.98
2023-02-11T11:29:51.824Z,9.53
2023-02-11T11:35:02.751Z,10.13
2023-02-11T11:40:10.776Z,8.45
2023-02-11T11:45:16.247Z,9.57
2023-02-11T11:50:40.334Z,9.99
2023-02-11T11:56:00.953Z,9.55
2023-02-11T12:01:36.181Z,9.62
2023-02-11T12:06:53.857Z,10.20
2023-02-11T12:12:15.393Z,9.90
2023-02-11T12:17:52.074Z,9.91
2023-02-11T12:23:05.230Z,8.78
2023-02-11T12:28:38.622Z,10.42
2023-02-11T12:34:15.260Z,9.79
2023-02-11T12:39:36.698Z,9.35
2023-02-11T12:45:04.473Z,10.56
2023-02-11T12:50:39.363Z,9.17
2023-02-11T12:55:47.364Z,10.61
2023-02-11T13:01:06.253Z,9.82
2023-02-11T13:06:17.859Z,10.06
2023-02-11T13:11:24.622Z,10.69
2023-02-11T13:16:33.428Z,8.71
2023-02-11T13:22:11.284Z,10.60
2023-02-11T13:27:38.210Z,11.82
2023-02-11T13:32:55.995Z,9.41
2023-02-11T13:38:05.182Z,10.69
2023-02-11T13:43:21.912Z,11.07
2023-02-11T13:48:26.235Z,9.81
2023-02-11T13:53:30.227Z,11.52
2023-02-11T13:58:32.855Z,10.87
2023-02-11T14:03:56.775Z,10.97
2023-02-11T14:09:14.640Z,11.61
2023-02-11T14:14:28.492Z,10.79
2023-02-11T14:19:33.562Z,12.76
2023-02-11T14:24:36.241Z,12.27
2023-02-11T14:29:44.098Z,10.75
2023-02-11T14:34:52.775Z,12.66
2023-02-11T14:40:02.988Z,10.93
2023-02-11T14:45:09.143Z,12.52
2023-02-11T14:50:19.336Z,12.34
2023-02-11T14:55:35.693Z,11.35
2023-02-11T15:01:09.011Z,13.01
2023-02-11T15:06:29.348Z,10.78
2023-02-11T15:11:39.454Z,10.81
2023-02-11T15:16:46.864Z,12.36
2023-02-11T15:21:51.122Z,10.65
2023-02-11T15:27:02.908Z,11.04
2023-02-11T15:32:15.669Z,12.70
2023-02-11T15:37:25.109Z,12.12
2023-02-11T15:42:35.834Z,11.23
2023-02-11T15:47:53.633Z,13.10
2023-02-11T15:53:00.630Z,12.66
2023-02-11T15:58:03.530Z,10.22
2023-02-11T16:03:06.573Z,11.63
2023-02-11T16:08:29.956Z,12.51
2023-02-11T16:13:35.300Z,10.22
2023-02-11T16:18:40.485Z,11.10
2023-02-11T16:23:49.723Z,12.86
2023-02-11T16:28:52.993Z,11.83
2023-02-11T16:33:55.718Z,10.55
2023-02-11T16:38:58.384Z,12.64
2023-02-11T16:44:01.425Z,11.52
2023-02-11T16:49:11.877Z,10.42
2023-02-11T16:54:16.550Z,12.58
2023-02-11T16:59:19.759Z,12.53
2023-02-11T17:04:30.320Z,10.07
2023-02-11T17:09:33.334Z,10.21
2023-02-11T17:14:36.006Z,12.60
2023-02-11T17:19:39.514Z,12.28
2023-02-11T17:24:42.191Z,9.89
2023-02-11T17:29:44.902Z,11.55
2023-02-11T17:34:47.564Z,11.99
2023-02-11T17:39:51.086Z,10.17
2023-02-11T17:44:53.808Z,12.00
2023-02-11T17:49:56.574Z,10.44
2023-02-11T17:54:59.279Z,9.95
2023-02-11T18:00:02.393Z,11.97
2023-02-11T18:05:06.833Z,10.30
2023-02-11T18:10:10.223Z,8.89
2023-02-11T18:15:13.133Z,11.20
2023-02-11T18:20:15.942Z,10.39
2023-02-11T18:25:18.948Z,8.36
2023-02-11T18:30:22.729Z,10.25
2023-02-11T18:35:25.682Z,9.70
2023-02-11T18:40:28.328Z,7.78
2023-02-11T18:45:31.401Z,10.04
2023-02-11T18:50:34.293Z,9.11
2023-02-11T18:55:42.221Z,7.13
2023-02-11T19:00:47.388Z,7.88
2023-02-11T19:05:50.356Z,10.64
2023-02-11T19:10:53.431Z,8.72
2023-02-11T19:15:56.285Z,6.74
2023-02-11T19:20:59.017Z,7.40
2023-02-11T19:26:04.568Z,10.08
2023-02-11T19:31:09.188Z,8.73
2023-02-11T19:36:16.446Z,6.59
2023-02-11T19:41:22.214Z,5.43
2023-02-11T19:46:27.772Z,6.47
2023-02-11T19:51:32.818Z,9.69
2023-02-11T19:56:35.531Z,8.10
2023-02-11T20:01:38.344Z,6.27
2023-02-11T20:06:41.314Z,5.26
2023-02-11T20:11:44.038Z,4.59
2023-02-11T20:16:49.730Z,4.07
2023-02-11T20:21:55.601Z,5.49
2023-02-11T20:26:58.424Z,9.42
2023-02-11T20:32:01.341Z,8.28
2023-02-11T20:37:05.175Z,6.18
2023-02-11T20:42:12.035Z,6.46
2023-02-11T20:47:14.659Z,9.53
2023-02-11T20:52:17.342Z,7.65
2023-02-11T20:57:20.032Z,5.88
2023-02-11T21:02:24.781Z,4.86
2023-02-11T21:07:29.558Z,4.20
2023-02-11T21:12:32.273Z,5.40
2023-02-11T21:17:35.166Z,8.93
2023-02-11T21:22:37.872Z,8.36
2023-02-11T21:27:40.660Z,6.22
2023-02-11T21:32:43.477Z,5.01
2023-02-11T21:37:46.163Z,4.31
2023-02-11T21:42:48.849Z,7.15
2023-02-11T21:47:52.180Z,8.70
2023-02-11T21:52:54.851Z,6.61
2023-02-11T21:57:57.544Z,5.32
2023-02-11T22:03:00.293Z,4.55
2023-02-11T22:08:03.419Z,3.97
2023-02-11T22:13:06.183Z,5.11
2023-02-11T22:18:08.857Z,8.67
2023-02-11T22:23:11.531Z,8.82
2023-02-11T22:28:14.330Z,6.58
2023-02-11T22:33:17.595Z,5.29
2023-02-11T22:38:20.233Z,4.44
2023-02-11T22:43:23.395Z,3.93
2023-02-11T22:48:26.288Z,6.70
2023-02-11T22:53:28.947Z,9.24
2023-02-11T22:58:32.082Z,7.65
2023-02-11T23:03:35.521Z,5.77
2023-02-11T23:08:40.672Z,4.75
2023-02-11T23:13:45.095Z,4.09
2023-02-11T23:18:49.212Z,3.61
2023-02-11T23:23:57.683Z,4.77
2023-02-11T23:29:00.790Z,8.44
2023-02-11T23:34:04.377Z,8.63
2023-02-11T23:39:07.116Z,6.36
2023-02-11T23:44:10.721Z,5.06
2023-02-11T23:49:15.658Z,4.21
2023-02-11T23:54:18.590Z,3.62
2023-02-11T23:59:21.326Z,5.68
